Time;durP1;ratioP1;P1;durP2;ratioP2;P2;SDS_P1;SDS_P2;PMS_P1;PMS_P2;Temp;Humidity;BMP_temperature;BMP_pressure;BME280_temperature;BME280_humidity;BME280_pressure;Samples;Min_cycle;Max_cycle;Signal;HPM_P1;HPM_P2
2024/03/23 00:02:21;;;;;;;0.20;0.20;;;;;;;7.21;55.79;101373.91;4937887;29;20028;-92
2024/03/23 00:04:48;;;;;;;0.20;0.20;;;;;;;7.20;56.21;101367.91;4937708;29;20059;-90
2024/03/23 00:07:15;;;;;;;0.20;0.20;;;;;;;7.22;56.32;101365.28;4920558;29;20596;-91
2024/03/23 00:09:42;;;;;;;0.20;0.20;;;;;;;7.09;56.12;101339.84;4936525;29;20046;-92
2024/03/23 00:12:12;;;;;;;0.10;0.10;;;;;;;7.28;56.38;101365.16;4936427;29;20478;-93
2024/03/23 00:14:39;;;;;;;0.20;0.20;;;;;;;7.06;56.06;101337.31;4936328;29;20537;-91
2024/03/23 00:17:05;;;;;;;0.20;0.20;;;;;;;7.10;56.25;101364.69;4936610;29;20039;-92
2024/03/23 00:19:32;;;;;;;0.20;0.20;;;;;;;6.96;56.95;101353.00;4936389;29;20038;-93
2024/03/23 00:21:58;;;;;;;0.20;0.20;;;;;;;6.78;56.73;101329.38;4936581;29;20095;-91
2024/03/23 00:24:25;;;;;;;0.20;0.20;;;;;;;7.02;56.94;101350.31;4936263;29;20036;-93
2024/03/23 00:26:51;;;;;;;0.20;0.20;;;;;;;6.96;57.24;101359.00;4937344;29;20051;-91
2024/03/23 00:29:18;;;;;;;0.20;0.20;;;;;;;6.95;56.60;101356.47;4936008;29;20059;-92
2024/03/23 00:31:44;;;;;;;0.20;0.20;;;;;;;6.97;56.76;101347.81;4936642;29;20035;-91
2024/03/23 00:34:11;;;;;;;0.20;0.20;;;;;;;6.96;56.70;101348.69;4936200;29;20055;-91
2024/03/23 00:36:38;;;;;;;0.20;0.20;;;;;;;6.91;57.05;101350.56;4937116;29;20063;-91
2024/03/23 00:39:05;;;;;;;0.20;0.20;;;;;;;6.88;57.17;101355.75;4936009;29;20466;-92
2024/03/23 00:41:32;;;;;;;0.20;0.20;;;;;;;6.80;56.92;101322.50;4937037;29;20024;-93
2024/03/23 00:43:58;;;;;;;0.20;0.20;;;;;;;6.97;56.51;101336.69;4936998;29;20055;-90
2024/03/23 00:46:25;;;;;;;0.20;0.20;;;;;;;6.94;56.56;101350.47;4936861;29;20028;-92
2024/03/23 00:48:51;;;;;;;0.20;0.20;;;;;;;6.89;57.01;101347.16;4936944;29;20028;-92
2024/03/23 00:51:18;;;;;;;0.20;0.20;;;;;;;6.86;57.09;101345.50;4935847;29;20081;-92
2024/03/23 00:53:43;;;;;;;0.20;0.20;;;;;;;6.82;57.62;101343.03;4920146;29;20036;-92
2024/03/23 00:56:09;;;;;;;0.20;0.20;;;;;;;6.68;57.04;101342.47;4935461;29;20485;-91
2024/03/23 00:58:35;;;;;;;0.20;0.20;;;;;;;6.59;57.26;101341.81;4919826;29;20080;-92
2024/03/23 01:01:00;;;;;;;0.20;0.20;;;;;;;6.61;57.26;101342.63;4935330;29;20600;-92
2024/03/23 01:03:26;;;;;;;0.10;0.10;;;;;;;6.69;57.43;101346.75;4935768;29;20061;-92
2024/03/23 01:05:53;;;;;;;0.20;0.20;;;;;;;6.57;57.31;101351.25;4919907;29;20039;-92
2024/03/23 01:08:18;;;;;;;0.20;0.20;;;;;;;6.56;58.22;101353.88;4935734;29;20086;-92
2024/03/23 01:10:54;;;;;;;0.20;0.20;;;;;;;6.60;57.51;101343.50;4919412;29;20036;-92
2024/03/23 01:13:22;;;;;;;0.20;0.20;;;;;;;6.64;57.71;101341.69;4919814;29;21596;-92
2024/03/23 01:15:54;;;;;;;0.20;0.20;;;;;;;6.64;57.93;101335.72;4935441;29;20027;-90
2024/03/23 01:18:20;;;;;;;0.20;0.20;;;;;;;6.68;57.81;101338.16;4919879;29;20039;-91
2024/03/23 01:20:46;;;;;;;0.20;0.20;;;;;;;6.71;57.24;101334.72;4935443;29;20036;-92
2024/03/23 01:23:11;;;;;;;0.20;0.20;;;;;;;6.64;57.78;101322.84;4919398;29;20486;-91
2024/03/23 01:25:37;;;;;;;0.20;0.20;;;;;;;6.62;58.12;101333.19;4934800;29;20035;-92
2024/03/23 01:28:03;;;;;;;0.20;0.20;;;;;;;6.68;58.24;101327.88;4919480;29;20111;-90
2024/03/23 01:30:28;;;;;;;0.20;0.20;;;;;;;6.70;57.79;101340.75;4918980;29;20040;-91
2024/03/23 01:32:54;;;;;;;0.20;0.20;;;;;;;6.63;57.90;101328.88;4919209;29;20062;-92
2024/03/23 01:35:19;;;;;;;0.20;0.20;;;;;;;6.64;58.26;101326.28;4919190;29;20182;-92
2024/03/23 01:37:45;;;;;;;0.10;0.10;;;;;;;6.69;57.82;101336.47;4934839;29;20032;-90
2024/03/23 01:40:13;;;;;;;0.20;0.20;;;;;;;6.67;57.77;101331.34;4918867;29;20035;-92
2024/03/23 01:42:39;;;;;;;0.20;0.20;;;;;;;6.54;57.59;101320.47;4934975;29;20031;-91
2024/03/23 01:45:07;;;;;;;0.20;0.20;;;;;;;6.55;57.46;101322.16;4934599;29;20031;-91
2024/03/23 01:47:33;;;;;;;0.20;0.20;;;;;;;6.53;57.96;101323.09;4919189;29;20040;-91
2024/03/23 01:49:59;;;;;;;0.20;0.20;;;;;;;6.58;57.65;101311.81;4919367;29;20119;-91
2024/03/23 01:52:25;;;;;;;0.20;0.20;;;;;;;6.52;57.66;101324.81;4934859;29;20410;-91
2024/03/23 01:55:09;;;;;;;0.20;0.20;;;;;;;6.45;58.64;101330.94;4918596;29;20027;-91
2024/03/23 01:57:35;;;;;;;0.20;0.20;;;;;;;6.44;57.57;101329.25;4935830;29;20047;-91
2024/03/23 02:00:00;;;;;;;0.20;0.20;;;;;;;6.27;57.68;101300.47;4918782;29;20058;-90
2024/03/23 02:02:26;;;;;;;0.20;0.20;;;;;;;6.51;58.04;101335.97;4934702;29;20028;-92
2024/03/23 02:04:51;;;;;;;0.20;0.20;;;;;;;6.43;57.87;101326.72;4918577;29;20023;-91
2024/03/23 02:07:17;;;;;;;0.10;0.10;;;;;;;6.46;57.41;101334.38;4918505;29;20090;-90
2024/03/23 02:09:43;;;;;;;0.20;0.20;;;;;;;6.49;57.44;101334.28;4934037;29;20038;-91
2024/03/23 02:12:08;;;;;;;0.20;0.20;;;;;;;6.46;57.04;101318.94;4918646;29;20059;-92
2024/03/23 02:14:34;;;;;;;0.20;0.20;;;;;;;6.59;56.66;101328.09;4933735;29;20020;-92
2024/03/23 02:16:59;;;;;;;0.20;0.20;;;;;;;6.52;56.76;101319.66;4918244;29;20033;-93
2024/03/23 02:19:25;;;;;;;0.20;0.20;;;;;;;6.56;56.87;101323.00;4918699;29;20020;-91
2024/03/23 02:21:50;;;;;;;0.20;0.20;;;;;;;6.52;57.29;101324.81;4934368;29;20028;-90
2024/03/23 02:24:16;;;;;;;0.20;0.20;;;;;;;6.52;57.23;101317.09;4933812;29;20028;-90
2024/03/23 02:26:41;;;;;;;0.20;0.20;;;;;;;6.54;56.90;101320.47;4934135;29;20031;-90
2024/03/23 02:29:09;;;;;;;0.20;0.20;;;;;;;6.53;56.88;101311.06;4918218;29;20486;-92
2024/03/23 02:31:34;;;;;;;0.20;0.20;;;;;;;6.52;57.16;101319.66;4918456;29;20031;-91
2024/03/23 02:34:00;;;;;;;0.20;0.20;;;;;;;6.61;57.01;101321.22;4933993;29;20498;-91
2024/03/23 02:36:26;;;;;;;0.10;0.10;;;;;;;6.57;56.65;101314.41;4918255;29;20035;-90
2024/03/23 02:38:52;;;;;;;0.20;0.20;;;;;;;6.52;57.16;101314.53;4917834;29;20036;-93
2024/03/23 02:41:22;;;;;;;0.10;0.10;;;;;;;6.36;57.80;101297.72;4917854;29;20086;-91
2024/03/23 02:43:51;;;;;;;0.20;0.20;;;;;;;6.42;57.29;101313.03;4934822;29;20036;-91
2024/03/23 02:46:17;;;;;;;0.20;0.20;;;;;;;6.33;57.75;101297.81;4918518;29;20066;-90
2024/03/23 02:48:42;;;;;;;0.10;0.10;;;;;;;6.43;57.70;101306.16;4918075;29;20042;-91
2024/03/23 02:51:08;;;;;;;0.10;0.10;;;;;;;6.42;57.69;101302.75;4917932;29;20039;-91
2024/03/23 02:53:34;;;;;;;0.20;0.20;;;;;;;6.36;58.11;101304.59;4933547;29;20055;-91
2024/03/23 02:55:59;;;;;;;0.10;0.10;;;;;;;6.30;58.33;101303.00;4917846;29;20078;-90
2024/03/23 02:58:25;;;;;;;0.20;0.20;;;;;;;6.32;58.66;101302.09;4917760;29;20505;-90
2024/03/23 03:00:50;;;;;;;0.20;0.20;;;;;;;6.40;57.86;101306.25;4917692;29;20478;-90
2024/03/23 03:03:16;;;;;;;0.20;0.20;;;;;;;6.33;57.90;101300.38;4917549;29;20043;-90
2024/03/23 03:05:41;;;;;;;0.20;0.20;;;;;;;6.38;58.13;101293.41;4933537;29;20509;-90
2024/03/23 03:08:07;;;;;;;0.20;0.20;;;;;;;6.40;58.06;101301.94;4917394;29;20035;-91
2024/03/23 03:10:34;;;;;;;0.20;0.20;;;;;;;6.32;58.21;101291.81;4917576;29;20122;-91
2024/03/23 03:13:00;;;;;;;0.20;0.20;;;;;;;6.39;58.73;101295.13;4933457;29;20040;-92
2024/03/23 03:15:26;;;;;;;0.20;0.20;;;;;;;6.33;58.76;101290.94;4917728;29;20032;-92
2024/03/23 03:17:51;;;;;;;0.20;0.20;;;;;;;6.28;58.68;101292.75;4917539;29;20171;-89
2024/03/23 03:20:17;;;;;;;0.20;0.20;;;;;;;6.21;59.32;101305.78;4933691;29;20039;-89
2024/03/23 03:22:43;;;;;;;0.17;0.17;;;;;;;6.15;59.46;101305.88;4917550;29;20035;-90
2024/03/23 03:25:09;;;;;;;0.20;0.20;;;;;;;6.12;59.22;101299.09;4932992;29;20059;-91
2024/03/23 03:27:34;;;;;;;0.20;0.20;;;;;;;6.14;59.26;101293.91;4917641;29;20068;-90
2024/03/23 03:30:05;;;;;;;0.20;0.20;;;;;;;6.18;59.62;101296.38;4917402;29;20044;-91
2024/03/23 03:32:32;;;;;;;0.20;0.20;;;;;;;6.17;59.70;101294.69;4918050;29;20502;-90
2024/03/23 03:34:57;;;;;;;0.20;0.20;;;;;;;6.11;59.61;101291.41;4917250;29;20031;-90
2024/03/23 03:37:23;;;;;;;0.20;0.20;;;;;;;6.14;59.34;101288.78;4917254;29;20054;-90
2024/03/23 03:39:48;;;;;;;0.20;0.20;;;;;;;6.22;59.50;101292.03;4933248;29;20031;-92
2024/03/23 03:42:14;;;;;;;0.10;0.10;;;;;;;6.24;59.35;101300.56;4933130;29;20502;-89
2024/03/23 03:44:40;;;;;;;0.20;0.20;;;;;;;6.16;59.29;101289.59;4917421;29;20462;-91
2024/03/23 03:47:06;;;;;;;0.10;0.10;;;;;;;6.16;59.22;101287.84;4917337;29;20062;-91
2024/03/23 03:49:32;;;;;;;0.10;0.10;;;;;;;6.14;59.67;101283.63;4933104;29;20119;-91
2024/03/23 03:51:57;;;;;;;0.10;0.10;;;;;;;6.22;59.40;101297.19;4917018;29;20115;-91
2024/03/23 03:54:23;;;;;;;0.20;0.20;;;;;;;6.20;59.36;101288.66;4933016;29;20406;-89
2024/03/23 03:56:48;;;;;;;0.20;0.20;;;;;;;6.25;59.34;101292.81;4916926;29;20054;-90
2024/03/23 03:59:14;;;;;;;0.20;0.20;;;;;;;6.21;59.26;101290.34;4917306;29;20032;-91
2024/03/23 04:01:40;;;;;;;0.20;0.20;;;;;;;6.04;59.67;101278.69;4932986;29;20418;-90
2024/03/23 04:04:06;;;;;;;0.20;0.20;;;;;;;6.13;59.56;101289.66;4932832;29;20027;-91
2024/03/23 04:06:33;;;;;;;0.20;0.20;;;;;;;6.09;59.92;101304.25;4917169;29;20042;-90
2024/03/23 04:08:58;;;;;;;0.20;0.20;;;;;;;6.02;60.17;101297.56;4933081;29;20035;-89
2024/03/23 04:11:24;;;;;;;0.20;0.20;;;;;;;5.99;60.22;101300.19;4917044;29;20059;-90
2024/03/23 04:13:49;;;;;;;0.20;0.20;;;;;;;5.92;60.61;101291.75;4917211;29;20031;-92
2024/03/23 04:16:28;;;;;;;0.20;0.20;;;;;;;6.08;60.52;101314.56;4932899;29;20028;-89
2024/03/23 04:18:53;;;;;;;0.20;0.20;;;;;;;5.97;60.68;101309.66;4917576;29;20028;-90
2024/03/23 04:21:19;;;;;;;0.20;0.20;;;;;;;6.00;60.62;101307.88;4916708;29;20036;-91
2024/03/23 04:23:45;;;;;;;0.20;0.20;;;;;;;6.10;60.37;101321.41;4932830;29;20047;-91
2024/03/23 04:26:11;;;;;;;0.20;0.20;;;;;;;6.12;60.18;101318.78;4932711;29;20031;-91
2024/03/23 04:28:36;;;;;;;0.20;0.20;;;;;;;6.05;60.82;101320.63;4932885;29;20031;-90
2024/03/23 04:31:05;;;;;;;0.20;0.20;;;;;;;6.00;60.95;101312.19;4916792;29;20036;-89
2024/03/23 04:33:31;;;;;;;0.20;0.20;;;;;;;5.96;60.67;101306.22;4932363;29;20052;-90
2024/03/23 04:35:56;;;;;;;0.20;0.20;;;;;;;5.96;61.60;101319.06;4916836;29;20091;-91
2024/03/23 04:38:22;;;;;;;0.20;0.20;;;;;;;5.94;61.37;101325.13;4920427;29;20057;-91
2024/03/23 04:40:57;;;;;;;0.20;0.20;;;;;;;5.95;61.78;101319.09;4920279;29;20075;-89
2024/03/23 04:43:23;;;;;;;0.10;0.10;;;;;;;5.92;61.67;101319.16;4936175;29;20090;-90
2024/03/23 04:45:49;;;;;;;0.15;0.15;;;;;;;5.91;61.67;101326.03;4920222;29;20118;-91
2024/03/23 04:48:14;;;;;;;0.20;0.20;;;;;;;5.88;61.93;101323.47;4919883;29;20082;-90
2024/03/23 04:50:40;;;;;;;0.20;0.20;;;;;;;5.89;62.46;101314.03;4919803;29;20044;-91
2024/03/23 04:53:06;;;;;;;0.20;0.20;;;;;;;5.88;62.66;101313.19;4935955;29;20490;-91
2024/03/23 04:55:32;;;;;;;0.20;0.20;;;;;;;5.92;63.13;101322.59;4920108;29;20051;-91
2024/03/23 04:57:58;;;;;;;0.20;0.20;;;;;;;5.88;63.07;101312.34;4919966;29;20031;-90
2024/03/23 05:00:23;;;;;;;0.20;0.20;;;;;;;5.89;63.33;101314.88;4919788;29;20035;-91
2024/03/23 05:02:49;;;;;;;0.20;0.20;;;;;;;5.91;63.67;101318.31;4935110;29;20035;-91
2024/03/23 05:05:14;;;;;;;0.20;0.20;;;;;;;6.00;63.94;101327.59;4919649;29;20043;-90
2024/03/23 05:07:41;;;;;;;0.20;0.20;;;;;;;6.00;64.24;101331.00;4935701;29;20418;-92
2024/03/23 05:10:10;;;;;;;0.20;0.20;;;;;;;6.04;64.83;101332.63;4935560;29;20063;-90
2024/03/23 05:12:36;;;;;;;0.20;0.20;;;;;;;6.16;64.77;101333.25;4920352;29;20075;-90
2024/03/23 05:15:03;;;;;;;0.20;0.20;;;;;;;6.23;65.15;101332.28;4919815;29;20055;-92
2024/03/23 05:17:28;;;;;;;0.20;0.20;;;;;;;6.28;65.40;101327.88;4935059;29;20466;-91
2024/03/23 05:19:54;;;;;;;0.20;0.20;;;;;;;6.28;65.85;101328.72;4935365;29;20027;-92
2024/03/23 05:22:19;;;;;;;0.20;0.20;;;;;;;6.27;66.56;101321.03;4919542;29;20035;-91
2024/03/23 05:24:45;;;;;;;0.20;0.20;;;;;;;6.31;67.20;101312.41;4919588;29;20023;-91
2024/03/23 05:27:11;;;;;;;0.20;0.20;;;;;;;6.38;66.80;101302.81;4919082;29;20028;-92
2024/03/23 05:29:37;;;;;;;0.20;0.20;;;;;;;6.46;66.54;101311.22;4935112;29;20031;-89
2024/03/23 05:32:02;;;;;;;0.20;0.20;;;;;;;6.29;67.21;101278.16;4918809;29;20031;-89
2024/03/23 05:34:29;;;;;;;0.20;0.20;;;;;;;6.58;67.01;101310.97;4934768;29;20040;-91
2024/03/23 05:36:54;;;;;;;0.20;0.20;;;;;;;6.61;66.82;101306.63;4935269;29;20138;-90
2024/03/23 05:39:22;;;;;;;0.20;0.20;;;;;;;6.70;66.67;101310.72;4919255;29;20043;-91
2024/03/23 05:41:48;;;;;;;0.20;0.20;;;;;;;6.79;66.33;101299.38;4919483;29;20036;-91
2024/03/23 05:44:14;;;;;;;0.20;0.20;;;;;;;6.88;66.44;101302.59;4919049;29;20126;-90
2024/03/23 05:46:40;;;;;;;0.20;0.20;;;;;;;6.97;66.18;101300.66;4919109;29;20047;-91
2024/03/23 05:49:06;;;;;;;0.20;0.20;;;;;;;7.08;65.71;101306.41;4918918;29;20497;-91
2024/03/23 05:51:31;;;;;;;0.20;0.20;;;;;;;7.10;65.81;101296.94;4918789;29;20043;-90
2024/03/23 05:53:57;;;;;;;0.20;0.20;;;;;;;7.14;65.37;101286.53;4934704;29;20138;-90
2024/03/23 05:56:22;;;;;;;0.20;0.20;;;;;;;7.13;64.50;101291.72;4934187;29;20027;-91
2024/03/23 05:58:48;;;;;;;0.20;0.20;;;;;;;7.10;65.32;101282.34;4934527;29;20132;-89
2024/03/23 06:01:14;;;;;;;0.15;0.15;;;;;;;7.22;65.61;101290.66;4934284;29;20032;-90
2024/03/23 06:03:39;;;;;;;0.20;0.20;;;;;;;7.27;64.42;101287.06;4934354;29;20498;-91
2024/03/23 06:06:10;;;;;;;0.20;0.20;;;;;;;7.35;63.14;101294.59;4918621;29;20028;-90
2024/03/23 06:08:35;;;;;;;0.20;0.20;;;;;;;7.38;62.40;101291.97;4934655;29;20035;-89
2024/03/23 06:11:01;;;;;;;0.20;0.20;;;;;;;7.44;62.25;101304.69;4918377;29;20036;-91
2024/03/23 06:13:29;;;;;;;0.10;0.10;;;;;;;7.50;60.56;101298.53;4934067;29;20110;-91
2024/03/23 06:15:55;;;;;;;0.20;0.20;;;;;;;7.54;59.93;101297.56;4934008;29;20051;-92
2024/03/23 06:18:21;;;;;;;0.20;0.20;;;;;;;7.28;60.68;101272.50;4934176;29;20482;-91
2024/03/23 06:20:46;;;;;;;0.20;0.20;;;;;;;7.65;60.20;101296.41;4934004;29;20027;-90
2024/03/23 06:23:12;;;;;;;0.20;0.20;;;;;;;7.62;60.13;101285.34;4918464;29;20102;-90
2024/03/23 06:25:38;;;;;;;0.20;0.20;;;;;;;7.66;60.63;101292.94;4933948;29;20031;-90
2024/03/23 06:28:04;;;;;;;0.20;0.20;;;;;;;7.86;60.44;101297.56;4934008;29;20042;-89
2024/03/23 06:30:31;;;;;;;0.20;0.20;;;;;;;7.92;60.65;101294.81;4917786;29;20059;-89
2024/03/23 06:32:57;;;;;;;0.20;0.20;;;;;;;8.03;60.11;101299.69;4933559;29;20781;-90
2024/03/23 06:35:22;;;;;;;0.20;0.20;;;;;;;8.15;61.89;101294.19;4918066;29;20027;-89
2024/03/23 06:37:48;;;;;;;0.20;0.20;;;;;;;8.06;63.23;101294.44;4933690;29;20039;-90
2024/03/23 06:40:13;;;;;;;0.10;0.10;;;;;;;8.16;63.39;101295.91;4933868;29;20114;-89
2024/03/23 06:42:39;;;;;;;0.20;0.20;;;;;;;8.17;63.80;101291.59;4933605;29;20032;-90
2024/03/23 06:45:05;;;;;;;0.20;0.20;;;;;;;8.34;63.40;101304.81;4917444;29;20034;-90
2024/03/23 06:47:31;;;;;;;0.20;0.20;;;;;;;8.46;63.14;101293.34;4917895;29;20032;-90
2024/03/23 06:49:56;;;;;;;0.20;0.20;;;;;;;8.49;62.32;101293.25;4917607;29;20076;-90
2024/03/23 06:52:22;;;;;;;0.20;0.20;;;;;;;8.59;60.59;101299.81;4933609;29;20027;-90
2024/03/23 06:54:48;;;;;;;0.20;0.20;;;;;;;8.82;60.78;101297.38;4933602;29;20101;-90
2024/03/23 06:57:13;;;;;;;0.20;0.20;;;;;;;9.03;59.54;101292.44;4917612;29;20067;-91
2024/03/23 06:59:39;;;;;;;0.20;0.20;;;;;;;9.16;58.25;101286.00;4916917;29;20031;-91
2024/03/23 07:02:05;;;;;;;0.20;0.20;;;;;;;9.35;57.47;101302.59;4917193;29;20039;-90
2024/03/23 07:04:30;;;;;;;0.20;0.20;;;;;;;9.49;56.56;101290.03;4917301;29;20024;-91
2024/03/23 07:06:56;;;;;;;0.20;0.20;;;;;;;9.63;56.76;101291.31;4917507;29;20028;-89
2024/03/23 07:09:25;;;;;;;0.20;0.20;;;;;;;9.72;55.94;101293.56;4933325;29;20509;-91
2024/03/23 07:11:51;;;;;;;0.20;0.20;;;;;;;9.65;55.32;101290.38;4917901;29;20083;-90
2024/03/23 07:14:17;;;;;;;0.20;0.20;;;;;;;9.72;55.77;101293.56;4916913;29;20055;-90
2024/03/23 07:16:42;;;;;;;0.20;0.20;;;;;;;9.88;57.09;101293.88;4917208;29;20031;-91
2024/03/23 07:19:08;;;;;;;0.20;0.20;;;;;;;10.00;57.08;101296.88;4932929;29;20042;-91
2024/03/23 07:21:34;;;;;;;0.20;0.20;;;;;;;10.16;56.59;101293.75;4933196;29;20031;-91
2024/03/23 07:23:59;;;;;;;0.20;0.20;;;;;;;10.38;51.49;101289.50;4917403;29;20042;-90
2024/03/23 07:26:25;;;;;;;0.20;0.20;;;;;;;10.49;51.50;101289.94;4917106;29;20027;-91
2024/03/23 07:28:50;;;;;;;0.20;0.20;;;;;;;10.60;49.28;101280.00;4917023;29;20032;-91
2024/03/23 07:31:16;;;;;;;0.20;0.20;;;;;;;10.76;49.16;101279.44;4917083;29;20042;-90
2024/03/23 07:33:43;;;;;;;0.20;0.20;;;;;;;10.84;47.70;101283.41;4932690;29;20086;-90
2024/03/23 07:36:09;;;;;;;0.20;0.20;;;;;;;10.90;47.88;101279.72;4917378;29;20038;-90
2024/03/23 07:38:34;;;;;;;0.20;0.20;;;;;;;10.98;47.44;101277.66;4917283;29;20027;-91
2024/03/23 07:41:10;;;;;;;0.20;0.20;;;;;;;11.08;47.74;101275.53;4917798;29;20505;-90
2024/03/23 07:43:38;;;;;;;0.20;0.20;;;;;;;11.17;47.83;101270.00;4917995;29;20031;-89
2024/03/23 07:46:04;;;;;;;0.20;0.20;;;;;;;11.23;47.59;101263.72;4917587;29;20066;-90
2024/03/23 07:48:30;;;;;;;0.20;0.20;;;;;;;11.21;48.02;101261.22;4917340;29;20126;-92
2024/03/23 07:51:07;;;;;;;0.20;0.20;;;;;;;11.39;47.55;101263.00;4917112;29;20115;-91
2024/03/23 07:53:33;;;;;;;0.20;0.20;;;;;;;11.55;47.54;101264.97;4916919;29;20034;-90
2024/03/23 07:56:06;;;;;;;0.20;0.20;;;;;;;11.66;47.29;101258.41;4917001;29;20031;-89
2024/03/23 07:58:32;;;;;;;0.20;0.20;;;;;;;11.67;47.74;101257.50;4916645;29;20502;-91
2024/03/23 08:01:04;;;;;;;0.20;0.20;;;;;;;11.87;47.59;101256.66;4932944;29;20051;-90
2024/03/23 08:03:29;;;;;;;0.20;0.20;;;;;;;11.98;46.61;101251.81;4932874;29;20078;-91
2024/03/23 08:05:55;;;;;;;0.20;0.20;;;;;;;12.13;45.94;101255.50;4932712;29;20055;-90
2024/03/23 08:08:20;;;;;;;0.20;0.20;;;;;;;12.13;45.46;101245.13;4916894;29;20083;-91
2024/03/23 08:10:53;;;;;;;0.20;0.20;;;;;;;12.31;45.63;101238.25;4916633;29;20788;-91
2024/03/23 08:13:19;;;;;;;0.20;0.20;;;;;;;12.49;45.11;101247.78;4936077;29;20035;-91
2024/03/23 08:15:44;;;;;;;0.15;0.15;;;;;;;12.62;44.33;101241.09;4920414;29;20414;-89
2024/03/23 08:18:15;;;;;;;0.20;0.20;;;;;;;12.77;43.30;101247.28;4936249;29;20134;-89
2024/03/23 08:20:41;;;;;;;0.20;0.20;;;;;;;12.84;44.09;101232.25;4921068;29;20130;-91
2024/03/23 08:23:06;;;;;;;0.20;0.20;;;;;;;13.00;41.79;101240.16;4920304;29;20034;-91
2024/03/23 08:25:32;;;;;;;0.20;0.20;;;;;;;13.15;40.90;101242.81;4920290;29;20038;-91
2024/03/23 08:27:58;;;;;;;0.20;0.20;;;;;;;13.28;42.25;101231.88;4935443;29;20070;-91
2024/03/23 08:30:24;;;;;;;0.20;0.20;;;;;;;13.48;42.98;101235.13;4919945;29;20055;-90
2024/03/23 08:32:49;;;;;;;0.20;0.20;;;;;;;13.69;43.01;101242.72;4919845;29;20074;-91
2024/03/23 08:35:15;;;;;;;0.20;0.20;;;;;;;13.87;43.90;101228.78;4919664;29;20032;-90
2024/03/23 08:37:40;;;;;;;0.20;0.20;;;;;;;13.93;43.63;101228.44;4920068;29;20083;-91
2024/03/23 08:40:08;;;;;;;0.20;0.20;;;;;;;14.00;43.19;101208.97;4919381;29;20024;-89
2024/03/23 08:42:34;;;;;;;0.20;0.20;;;;;;;14.01;41.68;101223.66;4920153;29;20035;-90
2024/03/23 08:44:59;;;;;;;0.20;0.20;;;;;;;14.01;43.03;101213.25;4935475;29;20027;-90
2024/03/23 08:47:25;;;;;;;0.20;0.20;;;;;;;14.07;42.99;101201.69;4935479;29;20036;-92
2024/03/23 08:49:51;;;;;;;0.20;0.20;;;;;;;14.38;42.43;101215.63;4919498;29;20062;-90
2024/03/23 08:52:16;;;;;;;0.20;0.20;;;;;;;14.35;40.85;101201.84;4935367;29;20027;-92
2024/03/23 08:54:42;;;;;;;0.20;0.20;;;;;;;14.50;39.64;101194.97;4936093;29;20031;-90
2024/03/23 08:57:08;;;;;;;0.20;0.20;;;;;;;14.69;38.65;101199.16;4935058;29;20035;-91
2024/03/23 08:59:34;;;;;;;0.20;0.20;;;;;;;14.86;38.74;101199.03;4919679;29;20055;-90
2024/03/23 09:02:00;;;;;;;0.20;0.20;;;;;;;15.00;38.35;101178.22;4919669;29;20035;-91
2024/03/23 09:04:25;;;;;;;0.20;0.20;;;;;;;15.10;37.92;101189.75;4935335;29;20066;-90
2024/03/23 09:06:51;;;;;;;0.20;0.20;;;;;;;15.20;38.72;101175.25;4919465;29;20123;-91
2024/03/23 09:09:17;;;;;;;0.20;0.20;;;;;;;15.30;38.65;101180.75;4919007;29;20094;-89
2024/03/23 09:11:43;;;;;;;0.20;0.20;;;;;;;15.27;38.82;101174.91;4935079;29;20028;-91
2024/03/23 09:14:08;;;;;;;0.20;0.20;;;;;;;15.44;38.37;101177.34;4919194;29;20491;-90
2024/03/23 09:16:35;;;;;;;0.20;0.20;;;;;;;15.44;38.39;101161.72;4935170;29;20040;-92
2024/03/23 09:19:00;;;;;;;0.20;0.20;;;;;;;15.49;37.81;101170.06;4919181;29;20039;-91
2024/03/23 09:21:26;;;;;;;0.20;0.20;;;;;;;15.46;37.18;101150.25;4919188;29;20032;-91
2024/03/23 09:23:51;;;;;;;0.20;0.20;;;;;;;15.65;37.11;101154.38;4933791;29;20027;-91
2024/03/23 09:26:17;;;;;;;0.20;0.20;;;;;;;15.63;37.67;101156.22;4919177;29;20035;-91
2024/03/23 09:28:42;;;;;;;0.20;0.20;;;;;;;15.64;37.14;101148.31;4934923;29;20032;-89
2024/03/23 09:31:09;;;;;;;0.20;0.20;;;;;;;15.82;38.05;101132.44;4934605;29;20034;-90
2024/03/23 09:33:35;;;;;;;0.20;0.20;;;;;;;15.94;38.14;101139.50;4918688;29;20055;-90
2024/03/23 09:36:04;;;;;;;0.20;0.20;;;;;;;16.04;37.37;101130.16;4918803;29;20099;-90
2024/03/23 09:38:30;;;;;;;0.20;0.20;;;;;;;16.24;36.81;101134.94;4934057;29;20027;-90
2024/03/23 09:40:56;;;;;;;0.20;0.20;;;;;;;16.44;37.00;101123.19;4918607;29;20042;-90
2024/03/23 09:43:21;;;;;;;0.20;0.20;;;;;;;16.53;36.17;101119.16;4918648;29;20493;-92
2024/03/23 09:45:47;;;;;;;0.20;0.20;;;;;;;16.73;36.61;101123.09;4918683;29;20038;-90
2024/03/23 09:48:12;;;;;;;0.13;0.13;;;;;;;16.64;36.11;101114.06;4918664;29;20046;-91
2024/03/23 09:50:39;;;;;;;0.20;0.20;;;;;;;16.68;36.01;101088.53;4918405;29;20031;-89
2024/03/23 09:53:07;;;;;;;0.20;0.20;;;;;;;16.90;35.20;101114.94;4934041;29;20060;-90
2024/03/23 09:55:33;;;;;;;0.10;0.10;;;;;;;16.95;35.58;101101.56;4937752;29;20524;-90
2024/03/23 09:57:59;;;;;;;0.20;0.20;;;;;;;17.12;36.04;101098.66;4918234;29;20020;-91
2024/03/23 10:00:25;;;;;;;0.20;0.20;;;;;;;17.19;35.34;101090.25;4918058;29;20122;-90
2024/03/23 10:02:51;;;;;;;0.20;0.20;;;;;;;17.27;34.49;101087.09;4918119;29;20111;-92
2024/03/23 10:05:22;;;;;;;0.20;0.20;;;;;;;17.30;34.79;101086.88;4918312;29;20067;-92
2024/03/23 10:07:51;;;;;;;0.20;0.20;;;;;;;17.38;35.22;101071.50;4918305;29;20070;-90
2024/03/23 10:10:17;;;;;;;0.20;0.20;;;;;;;17.62;34.62;101071.56;4934002;29;20425;-90
2024/03/23 10:12:50;;;;;;;0.20;0.20;;;;;;;17.72;35.35;101061.31;4933800;29;20036;-90
2024/03/23 10:15:25;;;;;;;0.20;0.20;;;;;;;17.72;35.51;101064.75;4918255;29;20039;-90
2024/03/23 10:17:51;;;;;;;0.20;0.20;;;;;;;17.78;35.54;101047.75;4917969;29;20036;-91
2024/03/23 10:20:23;;;;;;;0.20;0.20;;;;;;;17.98;35.30;101038.47;4917975;29;20028;-90
2024/03/23 10:22:50;;;;;;;0.20;0.20;;;;;;;18.12;35.79;101040.91;4917863;29;20043;-90
2024/03/23 10:25:15;;;;;;;0.20;0.20;;;;;;;18.26;35.49;101029.41;4917632;29;20047;-91
2024/03/23 10:27:43;;;;;;;0.20;0.20;;;;;;;18.26;34.60;101034.63;4917709;29;20028;-92
2024/03/23 10:30:14;;;;;;;0.20;0.20;;;;;;;18.31;35.68;101024.66;4917772;29;20114;-91
2024/03/23 10:32:40;;;;;;;0.20;0.20;;;;;;;18.30;35.37;101021.22;4917930;29;20052;-91
2024/03/23 10:35:15;;;;;;;0.20;0.20;;;;;;;18.45;35.23;101013.97;4916908;29;20535;-90
2024/03/23 10:37:42;;;;;;;0.20;0.20;;;;;;;18.65;34.88;101009.88;4933035;29;20043;-91
2024/03/23 10:40:09;;;;;;;0.20;0.20;;;;;;;18.68;34.01;100982.59;4933172;29;20032;-90
2024/03/23 10:42:35;;;;;;;0.20;0.20;;;;;;;19.05;33.90;100996.28;4933425;29;20031;-91
2024/03/23 10:45:00;;;;;;;0.20;0.20;;;;;;;19.18;33.35;100982.09;4933372;29;20115;-92
2024/03/23 10:47:26;;;;;;;0.20;0.20;;;;;;;19.29;34.31;100983.03;4933544;29;20114;-90
2024/03/23 10:49:51;;;;;;;0.20;0.20;;;;;;;19.27;34.34;100974.44;4933001;29;20081;-91
2024/03/23 10:52:17;;;;;;;0.20;0.20;;;;;;;19.43;34.22;100977.50;4917265;29;20114;-90
2024/03/23 10:54:42;;;;;;;0.10;0.10;;;;;;;19.62;35.27;100974.25;4917569;29;20078;-90
2024/03/23 10:57:17;;;;;;;0.20;0.20;;;;;;;19.75;33.91;100965.25;4917328;29;20055;-90
2024/03/23 10:59:42;;;;;;;0.20;0.20;;;;;;;19.93;34.13;100968.16;4917645;29;20036;-90
2024/03/23 11:02:08;;;;;;;0.20;0.20;;;;;;;19.95;34.78;100955.72;4917027;29;20036;-90
2024/03/23 11:04:34;;;;;;;0.20;0.20;;;;;;;20.21;33.68;100939.59;4932915;29;20041;-90
2024/03/23 11:07:01;;;;;;;0.20;0.20;;;;;;;20.23;33.24;100938.50;4932549;29;20175;-91
2024/03/23 11:09:40;;;;;;;0.20;0.20;;;;;;;20.34;32.44;100938.41;4917268;29;20028;-90
2024/03/23 11:12:23;;;;;;;0.20;0.20;;;;;;;20.53;31.88;100934.25;4932821;29;20554;-92
2024/03/23 11:15:05;;;;;;;0.10;0.10;;;;;;;20.60;32.00;100914.38;4932584;29;20024;-93
2024/03/23 11:17:31;;;;;;;0.20;0.20;;;;;;;20.79;32.04;100918.88;4918796;29;20427;-91
2024/03/23 11:20:00;;;;;;;0.20;0.20;;;;;;;20.89;31.43;100910.03;4916582;29;20055;-91
2024/03/23 11:22:39;;;;;;;0.20;0.20;;;;;;;21.20;30.97;100907.31;4934164;29;20486;-91
2024/03/23 11:25:20;;;;;;;0.20;0.20;;;;;;;21.22;30.35;100905.38;4933515;29;20491;-91
2024/03/23 11:27:46;;;;;;;0.20;0.20;;;;;;;21.19;29.79;100893.34;4932823;29;20114;-90